Time;durP1;ratioP1;P1;durP2;ratioP2;P2;SDS_P1;SDS_P2;PMS_P1;PMS_P2;Temp;Humidity;BMP_temperature;BMP_pressure;BME280_temperature;BME280_humidity;BME280_pressure;Samples;Min_cycle;Max_cycle;Signal;HPM_P1;HPM_P2
2022/01/29 00:01:53;;;;;;;;;4.00;4.00;;;;;21.46;35.48;103019.59;5076073;27;46276;-55
2022/01/29 00:04:19;;;;;;;;;5.00;5.00;;;;;21.43;35.61;103015.28;5076715;27;45416;-59
2022/01/29 00:06:45;;;;;;;;;6.75;5.00;;;;;21.42;35.83;103013.53;5076528;27;45403;-63
2022/01/29 00:09:14;;;;;;;;;7.00;6.00;;;;;21.39;36.02;103010.13;5077170;27;45351;-58
2022/01/29 00:11:40;;;;;;;;;5.50;5.50;;;;;21.38;35.66;103011.03;5076655;27;47656;-59
2022/01/29 00:14:06;;;;;;;;;7.00;5.00;;;;;21.37;35.80;103017.19;5076761;27;45850;-60
2022/01/29 00:16:32;;;;;;;;;5.00;5.00;;;;;21.35;35.69;103014.59;5076780;27;45242;-62
2022/01/29 00:18:57;;;;;;;;;5.00;5.00;;;;;21.34;35.71;103006.72;5075032;28;45434;-60
2022/01/29 00:21:23;;;;;;;;;6.00;6.00;;;;;21.31;35.63;103000.63;5076265;27;46823;-53
2022/01/29 00:23:48;;;;;;;;;5.00;5.00;;;;;21.30;36.03;102993.63;5076093;27;45334;-55
2022/01/29 00:26:16;;;;;;;;;5.75;5.75;;;;;21.29;36.10;102986.59;5076596;27;45338;-54
2022/01/29 00:28:41;;;;;;;;;6.00;6.00;;;;;21.25;36.06;102984.09;5076749;27;45879;-59
2022/01/29 00:31:10;;;;;;;;;6.50;5.50;;;;;21.25;36.08;102982.28;5076378;27;46345;-53
2022/01/29 00:33:36;;;;;;;;;5.00;4.50;;;;;21.24;35.76;102977.91;5076590;27;45728;-58
2022/01/29 00:36:01;;;;;;;;;4.50;4.25;;;;;21.21;36.00;102970.09;5075926;27;45418;-53
2022/01/29 00:38:26;;;;;;;;;6.00;5.00;;;;;21.22;36.06;102968.31;5075228;28;45249;-57
2022/01/29 00:40:52;;;;;;;;;4.50;4.50;;;;;21.21;35.94;102966.59;5075714;27;45288;-57
2022/01/29 00:43:17;;;;;;;;;6.50;5.50;;;;;21.17;35.92;102957.91;5076190;27;45382;-52
2022/01/29 00:45:42;;;;;;;;;4.75;4.75;;;;;21.19;36.24;102966.63;5075593;27;45296;-55
2022/01/29 00:48:08;;;;;;;;;7.75;6.00;;;;;21.17;35.92;102964.03;5076309;28;45613;-56
2022/01/29 00:50:33;;;;;;;;;6.50;5.00;;;;;21.15;35.88;102955.31;5076861;27;46572;-59
2022/01/29 00:52:59;;;;;;;;;5.00;5.00;;;;;21.13;35.51;102954.47;5076825;27;45381;-52
2022/01/29 00:55:24;;;;;;;;;5.75;4.75;;;;;21.10;35.59;102953.69;5076733;27;45423;-57
2022/01/29 00:57:50;;;;;;;;;5.00;5.00;;;;;21.09;35.72;102951.94;5077177;27;45854;-55
2022/01/29 01:00:15;;;;;;;;;5.75;4.00;;;;;21.08;35.84;102951.06;5076513;27;46418;-57
2022/01/29 01:02:42;;;;;;;;;8.00;4.75;;;;;21.08;35.65;102955.47;5076563;27;45350;-52
2022/01/29 01:05:08;;;;;;;;;5.75;5.00;;;;;21.08;35.74;102944.94;5076964;27;45278;-60
2022/01/29 01:07:33;;;;;;;;;6.50;4.25;;;;;21.08;35.63;102947.56;5077066;27;45619;-55
2022/01/29 01:09:59;;;;;;;;;5.75;5.00;;;;;21.05;36.05;102937.97;5076370;27;46301;-60
2022/01/29 01:12:24;;;;;;;;;5.50;4.75;;;;;21.05;36.14;102935.34;5075180;27;45361;-58
2022/01/29 01:14:50;;;;;;;;;5.75;5.75;;;;;21.05;35.61;102939.72;5076623;27;45188;-54
2022/01/29 01:17:15;;;;;;;;;4.50;4.00;;;;;21.03;35.68;102937.13;5076791;27;45375;-56
2022/01/29 01:19:41;;;;;;;;;4.50;4.50;;;;;21.04;35.63;102938.88;5076464;27;46469;-59
2022/01/29 01:22:06;;;;;;;;;5.00;5.00;;;;;21.03;35.60;102941.53;5076639;28;45374;-52
2022/01/29 01:24:32;;;;;;;;;6.00;5.00;;;;;21.01;36.10;102931.88;5076677;27;45452;-57
2022/01/29 01:26:58;;;;;;;;;3.75;3.75;;;;;21.00;36.30;102934.56;5076643;27;45407;-54
2022/01/29 01:29:23;;;;;;;;;3.00;3.00;;;;;21.00;35.98;102937.22;5076221;27;46577;-59
2022/01/29 01:31:48;;;;;;;;;5.25;5.25;;;;;20.98;36.14;102934.63;5076369;27;45314;-55
2022/01/29 01:34:17;;;;;;;;;5.00;5.00;;;;;20.98;36.20;102939.88;5076287;27;45435;-60
2022/01/29 01:36:48;;;;;;;;;5.00;5.00;;;;;20.98;35.95;102936.38;5075437;28;45357;-56
2022/01/29 01:39:17;;;;;;;;;3.00;3.00;;;;;20.98;35.97;102944.28;5076232;27;45361;-59
2022/01/29 01:41:53;;;;;;;;;4.25;3.25;;;;;20.96;35.91;102940.81;5076257;27;45839;-56
2022/01/29 01:44:19;;;;;;;;;4.00;4.00;;;;;20.95;36.43;102941.72;5076512;27;45242;-55
2022/01/29 01:46:44;;;;;;;;;0.25;0.25;;;;;20.94;36.24;102940.84;5075136;27;45501;-59
2022/01/29 01:49:10;;;;;;;;;4.25;4.25;;;;;20.93;36.27;102931.22;5075094;28;46837;-57
2022/01/29 01:51:36;;;;;;;;;4.25;4.25;;;;;20.94;35.91;102932.09;5076250;27;45331;-54
2022/01/29 01:54:02;;;;;;;;;5.00;4.00;;;;;20.93;35.87;102930.34;5076230;27;45417;-58
2022/01/29 01:56:27;;;;;;;;;6.25;6.00;;;;;20.92;36.19;102929.47;5075100;28;45494;-54
2022/01/29 01:58:56;;;;;;;;;4.00;4.00;;;;;20.91;36.40;102926.88;5074750;28;45462;-51
2022/01/29 02:01:22;;;;;;;;;4.75;4.75;;;;;20.89;36.53;102918.16;5075945;27;45837;-54
2022/01/29 02:03:48;;;;;;;;;4.00;4.00;;;;;20.91;36.53;102932.16;5076103;27;45223;-55
2022/01/29 02:06:14;;;;;;;;;6.00;5.25;;;;;20.89;36.46;102916.34;5076592;27;45683;-55
2022/01/29 02:08:40;;;;;;;;;5.00;5.00;;;;;20.88;36.62;102913.78;5074855;28;47489;-49
2022/01/29 02:11:06;;;;;;;;;3.00;3.00;;;;;20.89;36.19;102913.72;5075722;27;45407;-53
2022/01/29 02:13:32;;;;;;;;;7.00;4.00;;;;;20.88;36.65;102909.38;5075822;27;45445;-48
2022/01/29 02:15:58;;;;;;;;;6.00;4.00;;;;;20.86;36.60;102908.56;5078047;28;45414;-53
2022/01/29 02:18:23;;;;;;;;;3.00;3.00;;;;;20.86;36.15;102905.91;5079069;27;46942;-55
2022/01/29 02:20:49;;;;;;;;;4.00;3.25;;;;;20.85;36.34;102897.13;5079094;27;45465;-57
2022/01/29 02:23:17;;;;;;;;;4.50;4.00;;;;;20.85;36.35;102898.91;5079315;27;45326;-47
2022/01/29 02:25:48;;;;;;;;;3.00;2.25;;;;;20.84;36.91;102894.53;5079553;27;45511;-54
2022/01/29 02:28:22;;;;;;;;;1.00;1.00;;;;;20.83;36.53;102888.41;5079121;27;47013;-50
2022/01/29 02:30:56;;;;;;;;;3.25;3.25;;;;;20.84;36.25;102891.91;5078968;27;45512;-53
2022/01/29 02:33:21;;;;;;;;;3.25;3.25;;;;;20.83;36.72;102892.81;5079102;27;45266;-54
2022/01/29 02:35:49;;;;;;;;;3.75;3.75;;;;;20.83;36.81;102884.91;5079341;27;45323;-54
2022/01/29 02:38:17;;;;;;;;;4.00;4.00;;;;;20.81;36.79;102879.66;5079253;27;45510;-49
2022/01/29 02:40:55;;;;;;;;;3.25;3.25;;;;;20.82;36.65;102877.88;5079096;28;45802;-48
2022/01/29 02:43:26;;;;;;;;;3.00;2.25;;;;;20.81;36.77;102870.88;5079153;28;45416;-51
2022/01/29 02:45:53;;;;;;;;;2.50;2.50;;;;;20.78;36.56;102863.91;5079033;27;45422;-59
2022/01/29 02:48:20;;;;;;;;;6.50;5.25;;;;;20.79;36.44;102868.28;5077486;27;47410;-53
2022/01/29 02:50:46;;;;;;;;;3.50;3.50;;;;;20.78;36.44;102860.44;5079168;27;45231;-55
2022/01/29 02:53:12;;;;;;;;;3.75;3.75;;;;;20.77;36.97;102851.66;5079168;27;45397;-57
2022/01/29 02:55:38;;;;;;;;;4.25;4.00;;;;;20.76;36.77;102851.69;5079059;27;45512;-52
2022/01/29 02:58:03;;;;;;;;;3.00;3.00;;;;;20.77;36.93;102842.88;5078573;27;46003;-55
2022/01/29 03:00:29;;;;;;;;;5.25;3.00;;;;;20.74;37.01;102837.66;5078453;27;45476;-58
2022/01/29 03:02:54;;;;;;;;;3.00;3.00;;;;;20.75;37.02;102831.50;5078768;27;45322;-56
2022/01/29 03:05:20;;;;;;;;;3.00;3.00;;;;;20.74;36.52;102829.75;5078777;27;45560;-55
2022/01/29 03:07:46;;;;;;;;;3.25;2.00;;;;;20.73;36.56;102834.13;5078959;27;46195;-58
2022/01/29 03:10:11;;;;;;;;;4.00;4.00;;;;;20.72;36.52;102827.16;5078606;27;45464;-56
2022/01/29 03:12:40;;;;;;;;;3.00;3.00;;;;;20.72;36.76;102821.00;5078728;27;45406;-53
2022/01/29 03:15:09;;;;;;;;;3.50;3.50;;;;;20.72;36.59;102823.66;5078809;27;45498;-56
2022/01/29 03:17:35;;;;;;;;;4.25;2.25;;;;;20.70;36.78;102823.69;5078244;27;47453;-60
2022/01/29 03:20:01;;;;;;;;;3.00;3.00;;;;;20.68;36.64;102815.81;5078247;27;45353;-59
2022/01/29 03:22:26;;;;;;;;;3.00;3.00;;;;;20.68;36.97;102815.81;5078309;27;45340;-54
2022/01/29 03:24:52;;;;;;;;;4.50;3.75;;;;;20.68;36.68;102826.34;5078425;27;45523;-61
2022/01/29 03:27:17;;;;;;;;;3.00;3.00;;;;;20.69;36.52;102821.97;5077470;28;45466;-61
2022/01/29 03:29:43;;;;;;;;;4.25;2.00;;;;;20.64;36.82;102808.91;5078528;28;45275;-54
2022/01/29 03:32:09;;;;;;;;;2.50;2.50;;;;;20.68;36.64;102821.06;5078339;28;45346;-61
2022/01/29 03:34:34;;;;;;;;;5.00;3.25;;;;;20.67;36.78;102813.22;5077166;27;45553;-54
2022/01/29 03:37:00;;;;;;;;;4.50;3.25;;;;;20.66;36.72;102814.13;5077832;27;45915;-60
2022/01/29 03:39:27;;;;;;;;;3.00;3.00;;;;;20.66;36.69;102817.63;5077926;27;45394;-52
2022/01/29 03:41:54;;;;;;;;;2.25;2.25;;;;;20.66;36.63;102827.28;5078149;27;45361;-52
2022/01/29 03:44:20;;;;;;;;;2.25;2.25;;;;;20.65;36.98;102821.16;5078326;27;45490;-56
2022/01/29 03:46:45;;;;;;;;;2.50;2.50;;;;;20.65;36.78;102818.53;5078094;27;45321;-54
2022/01/29 03:49:11;;;;;;;;;2.50;2.25;;;;;20.63;37.20;102822.97;5077967;27;45356;-58
2022/01/29 03:51:37;;;;;;;;;2.25;2.25;;;;;20.64;36.90;102831.72;5077960;27;45433;-53
2022/01/29 03:54:03;;;;;;;;;1.75;1.75;;;;;20.64;36.64;102819.44;5078143;27;45534;-50
2022/01/29 03:56:28;;;;;;;;;2.25;2.25;;;;;20.62;36.88;102810.69;5077649;28;46417;-57
2022/01/29 03:58:53;;;;;;;;;3.75;3.75;;;;;20.63;37.04;102817.72;5077747;27;45399;-52
2022/01/29 04:01:19;;;;;;;;;2.00;2.00;;;;;20.61;36.75;102806.34;5076522;28;45798;-49
2022/01/29 04:03:44;;;;;;;;;2.75;2.00;;;;;20.58;36.68;102810.81;5076931;28;45363;-48
2022/01/29 04:06:10;;;;;;;;;3.00;3.00;;;;;20.61;36.73;102813.38;5077404;27;47436;-50
2022/01/29 04:08:40;;;;;;;;;3.00;2.50;;;;;20.60;37.11;102816.91;5076228;28;45925;-49
2022/01/29 04:11:14;;;;;;;;;3.75;3.75;;;;;20.59;36.90;102820.44;5077433;27;45460;-52
2022/01/29 04:13:43;;;;;;;;;2.25;2.25;;;;;20.59;37.18;102816.03;5077936;28;45342;-57
2022/01/29 04:16:10;;;;;;;;;2.00;2.00;;;;;20.59;36.59;102805.50;5077292;27;46588;-64
2022/01/29 04:18:36;;;;;;;;;2.00;2.00;;;;;20.58;36.69;102808.19;5077361;27;45180;-47
2022/01/29 04:21:03;;;;;;;;;2.00;2.00;;;;;20.58;37.01;102803.75;5077393;27;45251;-47
2022/01/29 04:23:28;;;;;;;;;2.00;2.00;;;;;20.58;36.99;102803.75;5077543;27;45460;-48
2022/01/29 04:25:54;;;;;;;;;2.00;1.00;;;;;20.57;37.29;102803.81;5075966;28;46187;-61
2022/01/29 04:28:27;;;;;;;;;2.00;2.00;;;;;20.56;36.97;102792.38;5093171;27;45276;-64
2022/01/29 04:30:58;;;;;;;;;2.00;2.00;;;;;20.55;36.71;102803.84;5077299;27;45381;-60
2022/01/29 04:33:29;;;;;;;;;2.00;2.00;;;;;20.55;37.29;102815.25;5077388;27;45201;-61
2022/01/29 04:35:57;;;;;;;;;2.50;2.00;;;;;20.55;37.15;102819.66;5077151;27;45456;-54
2022/01/29 04:38:23;;;;;;;;;6.00;3.00;;;;;20.54;36.64;102812.66;5076654;27;45338;-59
2022/01/29 04:40:48;;;;;;;;;3.00;3.00;;;;;20.53;36.74;102811.78;5077404;27;45308;-55
2022/01/29 04:43:14;;;;;;;;;3.00;3.00;;;;;20.54;37.15;102818.78;5077208;27;45207;-49
2022/01/29 04:45:40;;;;;;;;;2.50;2.50;;;;;20.53;36.67;102808.28;5076866;27;45660;-56
2022/01/29 04:48:05;;;;;;;;;2.00;2.00;;;;;20.53;37.29;102803.03;5076839;28;45338;-51
2022/01/29 04:50:31;;;;;;;;;3.25;2.00;;;;;20.52;37.19;102806.56;5076940;27;45294;-57
2022/01/29 04:52:56;;;;;;;;;1.50;1.50;;;;;20.52;36.93;102809.19;5077138;27;45653;-47
2022/01/29 04:55:22;;;;;;;;;2.00;2.00;;;;;20.52;36.93;102803.94;5076915;27;45589;-50
2022/01/29 04:57:47;;;;;;;;;2.00;2.00;;;;;20.47;37.05;102795.25;5077051;28;45378;-56
2022/01/29 05:00:23;;;;;;;;;2.00;2.00;;;;;20.51;36.93;102799.56;5076857;27;45339;-54
2022/01/29 05:02:53;;;;;;;;;0.00;0.00;;;;;20.51;36.62;102808.31;5078165;27;45384;-60
2022/01/29 05:05:23;;;;;;;;;2.00;2.00;;;;;20.51;36.70;102796.91;5077535;27;45507;-53
2022/01/29 05:07:48;;;;;;;;;2.75;2.50;;;;;20.50;36.96;102789.91;5077156;27;45378;-54
2022/01/29 05:10:15;;;;;;;;;4.75;3.25;;;;;20.52;37.50;102801.28;5092473;27;45344;-53
2022/01/29 05:12:53;;;;;;;;;1.75;1.75;;;;;20.53;37.35;102795.13;5076590;27;45457;-57
2022/01/29 05:28:59;;;;;;;;;1.50;1.50;;;;;20.87;37.02;102802.22;5075379;27;45802;-64
2022/01/29 05:31:25;;;;;;;;;2.00;2.00;;;;;20.92;37.10;102802.94;5076730;27;45385;-58
2022/01/29 05:33:51;;;;;;;;;2.75;2.00;;;;;20.97;36.67;102805.47;5076739;28;45363;-59
2022/01/29 05:36:16;;;;;;;;;2.00;2.00;;;;;21.00;37.09;102800.97;5076374;27;46428;-59
2022/01/29 05:38:43;;;;;;;;;2.00;2.00;;;;;21.07;36.99;102803.47;5076276;27;45298;-56
2022/01/29 05:41:08;;;;;;;;;2.00;2.00;;;;;21.11;36.75;102803.34;5076317;27;45280;-62
2022/01/29 05:43:34;;;;;;;;;1.00;1.00;;;;;21.16;36.78;102800.56;5076469;27;45324;-58
2022/01/29 05:45:59;;;;;;;;;1.50;1.50;;;;;21.19;36.83;102786.44;5076199;27;46438;-60
2022/01/29 05:48:24;;;;;;;;;1.25;1.25;;;;;21.23;36.58;102782.81;5076213;27;45376;-53
2022/01/29 05:50:50;;;;;;;;;2.00;2.00;;;;;21.26;36.24;102783.59;5079779;28;45355;-64
2022/01/29 05:53:15;;;;;;;;;1.00;1.00;;;;;21.29;36.90;102785.28;5080092;27;45169;-64
2022/01/29 05:55:40;;;;;;;;;1.25;1.25;;;;;21.31;37.01;102784.34;5078280;27;46684;-62
2022/01/29 05:58:06;;;;;;;;;2.00;2.00;;;;;21.33;36.93;102779.03;5079548;27;45320;-57
2022/01/29 06:00:31;;;;;;;;;1.75;1.75;;;;;21.34;36.65;102774.59;5079727;27;45353;-57
2022/01/29 06:03:03;;;;;;;;;2.00;2.00;;;;;21.36;36.40;102786.84;5079635;27;45397;-59
2022/01/29 06:05:28;;;;;;;;;1.25;1.25;;;;;21.38;36.33;102784.16;5079265;27;47135;-54
2022/01/29 06:07:54;;;;;;;;;2.00;2.00;;;;;21.37;36.67;102780.69;5079785;27;45215;-63
2022/01/29 06:10:19;;;;;;;;;3.25;2.00;;;;;21.38;36.73;102778.88;5079588;27;45366;-64
2022/01/29 06:12:44;;;;;;;;;2.00;1.00;;;;;21.39;36.62;102772.72;5079710;27;45597;-57
2022/01/29 06:15:11;;;;;;;;;1.00;1.00;;;;;21.40;36.31;102777.06;5079335;27;46297;-65
2022/01/29 06:17:38;;;;;;;;;1.00;1.00;;;;;21.38;36.64;102785.03;5079230;27;45315;-62
2022/01/29 06:20:04;;;;;;;;;2.00;2.00;;;;;21.39;36.58;102780.63;5077985;28;45321;-64
2022/01/29 06:22:29;;;;;;;;;2.50;1.75;;;;;21.40;36.56;102777.06;5079533;27;45492;-56
2022/01/29 06:24:55;;;;;;;;;1.00;1.00;;;;;21.40;36.43;102780.56;5078017;28;45335;-51
2022/01/29 06:27:20;;;;;;;;;2.00;2.00;;;;;21.39;36.39;102775.34;5079083;27;45392;-54
2022/01/29 06:29:45;;;;;;;;;1.00;1.00;;;;;21.40;36.43;102788.47;5079164;27;45308;-58
2022/01/29 06:32:11;;;;;;;;;1.00;1.00;;;;;21.39;36.57;102785.91;5079370;27;45604;-55
2022/01/29 06:34:36;;;;;;;;;1.25;1.25;;;;;21.39;36.48;102786.75;5078974;27;45479;-56
2022/01/29 06:37:01;;;;;;;;;2.00;2.00;;;;;21.39;36.45;102783.25;5078929;27;45391;-64
2022/01/29 06:39:27;;;;;;;;;2.00;2.00;;;;;21.39;36.30;102783.25;5078975;27;45807;-52
2022/01/29 06:41:52;;;;;;;;;2.50;1.00;;;;;21.38;36.38;102785.03;5078241;28;45629;-62
2022/01/29 06:44:17;;;;;;;;;1.50;1.50;;;;;21.37;36.20;102775.41;5078795;27;46401;-65
2022/01/29 06:46:43;;;;;;;;;1.50;1.00;;;;;21.36;36.24;102780.69;5078774;27;45242;-63
2022/01/29 06:49:08;;;;;;;;;1.50;1.50;;;;;21.35;36.41;102768.41;5078880;27;45268;-65
2022/01/29 06:51:34;;;;;;;;;5.00;2.25;;;;;21.35;36.51;102774.56;5079054;27;45644;-62
2022/01/29 06:53:59;;;;;;;;;2.00;2.00;;;;;21.34;36.00;102772.84;5078625;27;45669;-60
2022/01/29 06:56:24;;;;;;;;;3.00;3.00;;;;;21.35;36.06;102777.22;5079061;27;45263;-64
2022/01/29 06:58:50;;;;;;;;;2.25;2.00;;;;;21.33;36.44;102772.91;5078786;27;45773;-54
2022/01/29 07:01:15;;;;;;;;;3.75;2.50;;;;;21.31;36.43;102772.91;5078430;27;45797;-61
2022/01/29 07:03:40;;;;;;;;;2.00;2.00;;;;;21.30;36.16;102777.34;5078600;27;45657;-60
2022/01/29 07:06:06;;;;;;;;;2.00;2.00;;;;;21.28;35.96;102773.00;5078558;27;45255;-51
2022/01/29 07:08:34;;;;;;;;;2.25;2.00;;;;;21.30;36.36;102782.63;5078598;27;45585;-55
2022/01/29 07:10:59;;;;;;;;;2.25;2.00;;;;;21.30;36.02;102781.75;5078574;27;45489;-59
2022/01/29 07:13:25;;;;;;;;;1.50;1.50;;;;;21.28;36.11;102770.34;5078633;28;46129;-54
2022/01/29 07:15:52;;;;;;;;;2.00;1.00;;;;;21.27;36.16;102774.78;5078158;27;45452;-54
2022/01/29 07:18:17;;;;;;;;;2.00;2.00;;;;;21.29;36.57;102780.00;5094203;27;45388;-61
2022/01/29 07:20:43;;;;;;;;;2.75;1.75;;;;;21.26;36.38;102764.28;5078552;27;45248;-63
2022/01/29 07:23:08;;;;;;;;;1.50;1.00;;;;;21.25;36.48;102762.56;5078155;27;45423;-61
2022/01/29 07:25:34;;;;;;;;;1.25;1.25;;;;;21.24;36.42;102756.41;5078167;27;45938;-64
2022/01/29 07:27:59;;;;;;;;;1.00;1.00;;;;;21.24;36.02;102761.66;5078852;27;45458;-58
2022/01/29 07:30:25;;;;;;;;;1.00;1.00;;;;;21.22;36.07;102752.09;5078601;27;45213;-51
2022/01/29 07:32:50;;;;;;;;;1.50;1.50;;;;;21.21;36.13;102750.34;5078012;27;46135;-52
2022/01/29 07:35:15;;;;;;;;;1.00;1.00;;;;;21.20;36.61;102752.13;5078193;27;45266;-59
2022/01/29 07:37:41;;;;;;;;;0.25;0.25;;;;;21.20;36.91;102760.03;5078173;27;45276;-57
2022/01/29 07:40:07;;;;;;;;;1.00;1.00;;;;;21.18;36.19;102764.50;5078276;27;45469;-58
2022/01/29 07:42:32;;;;;;;;;4.50;2.00;;;;;21.16;35.90;102767.19;5078103;28;45442;-58
2022/01/29 07:44:58;;;;;;;;;1.00;1.00;;;;;21.16;36.42;102768.94;5078160;27;45358;-59
2022/01/29 07:47:23;;;;;;;;;1.50;1.50;;;;;21.15;36.50;102773.38;5078064;27;45264;-61
2022/01/29 07:49:48;;;;;;;;;1.00;1.00;;;;;21.13;36.57;102766.38;5078266;27;45244;-65
2022/01/29 07:52:14;;;;;;;;;1.00;1.00;;;;;21.13;36.44;102769.00;5077749;27;46295;-58
2022/01/29 07:54:39;;;;;;;;;1.00;1.00;;;;;21.12;36.20;102762.88;5077904;27;45433;-56
2022/01/29 07:57:05;;;;;;;;;1.00;1.00;;;;;21.11;36.35;102755.88;5077935;27;45319;-61
2022/01/29 07:59:30;;;;;;;;;2.00;2.00;;;;;21.09;36.45;102764.75;5076825;28;45609;-65
2022/01/29 08:01:56;;;;;;;;;1.75;1.75;;;;;21.05;36.35;102755.19;5076342;28;47056;-63
2022/01/29 08:04:24;;;;;;;;;2.00;2.00;;;;;21.07;36.41;102758.66;5077661;27;45924;-63
2022/01/29 08:06:49;;;;;;;;;3.00;2.00;;;;;21.04;36.00;102758.72;5077663;27;45338;-58
2022/01/29 08:09:15;;;;;;;;;2.00;1.25;;;;;21.00;36.56;102765.84;5077906;27;45270;-63
2022/01/29 08:11:40;;;;;;;;;2.00;2.00;;;;;20.98;36.09;102773.81;5076593;27;45688;-59
2022/01/29 08:14:06;;;;;;;;;3.25;3.25;;;;;20.95;36.10;102767.72;5076212;28;45426;-57
2022/01/29 08:16:31;;;;;;;;;3.25;3.00;;;;;20.89;36.21;102760.00;5077802;27;45472;-59
2022/01/29 08:18:57;;;;;;;;;4.75;3.50;;;;;20.80;36.04;102756.72;5077570;27;45546;-60
2022/01/29 08:21:22;;;;;;;;;1.75;1.75;;;;;20.76;36.58;102760.31;5075899;28;45392;-56
2022/01/29 08:23:47;;;;;;;;;2.00;2.00;;;;;20.67;36.38;102756.09;5077388;27;45428;-57
2022/01/29 08:26:13;;;;;;;;;3.00;3.00;;;;;20.64;36.51;102760.59;5077342;27;45361;-60
2022/01/29 08:28:39;;;;;;;;;2.50;2.50;;;;;20.57;36.74;102759.88;5077464;28;45521;-65
2022/01/29 08:31:05;;;;;;;;;2.50;2.00;;;;;20.51;37.00;102754.78;5077008;27;46121;-63
2022/01/29 08:33:30;;;;;;;;;3.00;1.50;;;;;20.50;36.43;102755.69;5077363;28;45321;-61
2022/01/29 08:35:57;;;;;;;;;3.75;1.00;;;;;20.50;36.89;102760.94;5075943;28;45349;-67
2022/01/29 08:38:25;;;;;;;;;1.25;1.25;;;;;20.51;37.31;102765.31;5076119;28;45607;-63
2022/01/29 08:40:51;;;;;;;;;1.00;1.00;;;;;20.52;37.00;102761.78;5076860;27;46256;-64
2022/01/29 08:43:16;;;;;;;;;1.00;1.00;;;;;20.50;36.72;102763.56;5076891;27;45287;-63
2022/01/29 08:45:42;;;;;;;;;1.00;1.00;;;;;20.50;37.26;102759.19;5077190;27;45313;-61
2022/01/29 08:48:07;;;;;;;;;2.00;1.00;;;;;20.51;36.66;102765.31;5076001;28;45663;-64
2022/01/29 08:50:33;;;;;;;;;2.00;0.00;;;;;20.51;36.76;102755.63;5077135;27;46515;-64
2022/01/29 08:52:59;;;;;;;;;1.00;1.00;;;;;20.51;37.06;102753.00;5077173;27;45354;-64
2022/01/29 08:55:24;;;;;;;;;1.00;1.00;;;;;20.51;36.80;102754.78;5077071;27;45345;-61
2022/01/29 08:57:50;;;;;;;;;0.00;0.00;;;;;20.52;36.89;102752.09;5077228;27;45548;-62
2022/01/29 09:00:15;;;;;;;;;2.00;0.50;;;;;20.52;37.06;102756.50;5076792;27;46341;-61
2022/01/29 09:02:41;;;;;;;;;1.00;1.00;;;;;20.52;36.94;102749.47;5076884;27;45414;-57
2022/01/29 09:05:08;;;;;;;;;2.00;0.75;;;;;20.54;37.09;102759.97;5076986;27;45437;-59
2022/01/29 09:07:34;;;;;;;;;0.75;0.75;;;;;20.54;37.10;102744.16;5076157;28;45563;-53
2022/01/29 09:09:59;;;;;;;;;0.25;0.25;;;;;20.52;37.03;102756.50;5076707;27;46321;-56
2022/01/29 09:12:25;;;;;;;;;0.50;0.50;;;;;20.53;37.12;102748.56;5076628;27;45351;-52
2022/01/29 09:14:50;;;;;;;;;2.50;2.00;;;;;20.53;37.08;102743.28;5076757;27;45742;-55
2022/01/29 09:17:15;;;;;;;;;3.00;0.75;;;;;20.55;36.90;102753.81;5076802;27;45559;-50
2022/01/29 09:19:41;;;;;;;;;1.00;0.00;;;;;20.55;37.15;102748.53;5076439;27;45401;-55
2022/01/29 09:22:07;;;;;;;;;0.75;0.00;;;;;20.57;36.80;102749.34;5076614;27;45341;-59
2022/01/29 09:24:32;;;;;;;;;0.25;0.25;;;;;20.55;36.95;102745.91;5078166;27;45230;-58
2022/01/29 09:26:58;;;;;;;;;0.00;0.00;;;;;20.55;36.95;102746.75;5080379;27;45581;-58
2022/01/29 09:29:24;;;;;;;;;0.00;0.00;;;;;20.56;36.88;102744.97;5095668;27;48120;-51
2022/01/29 09:31:49;;;;;;;;;0.25;0.25;;;;;20.57;36.90;102751.97;5080009;27;45417;-59
2022/01/29 09:34:15;;;;;;;;;0.00;0.00;;;;;20.55;37.00;102741.47;5080154;27;45403;-51
2022/01/29 09:36:40;;;;;;;;;0.00;0.00;;;;;20.58;36.66;102734.41;5080343;27;45589;-55
2022/01/29 09:39:06;;;;;;;;;0.25;0.25;;;;;20.55;36.55;102730.09;5080285;27;46186;-51
2022/01/29 09:41:32;;;;;;;;;0.25;0.25;;;;;20.57;36.69;102737.94;5080142;28;45307;-49
2022/01/29 09:43:58;;;;;;;;;1.00;0.00;;;;;20.58;36.73;102745.81;5080020;27;45352;-52
2022/01/29 09:46:30;;;;;;;;;0.50;0.50;;;;;20.57;37.41;102730.91;5080096;27;45511;-49
2022/01/29 09:48:56;;;;;;;;;0.00;0.00;;;;;20.57;37.21;102733.53;5079644;27;46198;-52
2022/01/29 09:51:21;;;;;;;;;0.00;0.00;;;;;20.57;36.74;102730.91;5079856;27;45422;-51
2022/01/29 09:53:47;;;;;;;;;0.00;0.00;;;;;20.58;36.92;102730.00;5078607;27;45371;-55
2022/01/29 09:56:13;;;;;;;;;1.00;1.00;;;;;20.58;36.62;102735.25;5079953;27;45509;-58
2022/01/29 09:58:40;;;;;;;;;0.50;0.50;;;;;20.58;36.85;102740.53;5079585;27;46842;-57
2022/01/29 10:01:06;;;;;;;;;2.50;0.00;;;;;20.55;37.09;102733.59;5079752;27;45700;-55
2022/01/29 10:03:31;;;;;;;;;1.25;1.00;;;;;20.55;36.83;102745.91;5079657;27;45190;-51
2022/01/29 10:05:57;;;;;;;;;0.00;0.00;;;;;20.56;36.54;102747.59;5079916;27;45455;-55
2022/01/29 10:08:23;;;;;;;;;0.50;0.50;;;;;20.55;36.58;102745.91;5079595;27;46636;-57
2022/01/29 10:10:51;;;;;;;;;0.25;0.25;;;;;20.55;37.26;102743.28;5077968;28;45511;-52
2022/01/29 10:13:22;;;;;;;;;2.00;0.25;;;;;20.56;37.11;102752.88;5079531;28;45370;-60
2022/01/29 10:15:47;;;;;;;;;0.75;0.75;;;;;20.55;36.67;102751.19;5079623;28;45553;-54
2022/01/29 10:18:23;;;;;;;;;1.00;0.75;;;;;20.55;37.34;102748.53;5079170;27;46470;-59
2022/01/29 10:20:50;;;;;;;;;0.50;0.50;;;;;20.53;37.39;102742.44;5094813;27;45617;-60
2022/01/29 10:23:16;;;;;;;;;1.50;1.00;;;;;20.53;36.68;102752.97;5079200;27;45400;-56
2022/01/29 10:25:44;;;;;;;;;1.00;1.00;;;;;20.50;37.27;102753.91;5079493;27;45605;-56
2022/01/29 10:28:15;;;;;;;;;0.00;0.00;;;;;20.51;36.99;102760.03;5094726;27;48396;-58
2022/01/29 10:30:50;;;;;;;;;2.00;0.00;;;;;20.50;36.93;102759.19;5079079;27;45458;-55
2022/01/29 10:33:22;;;;;;;;;1.00;1.00;;;;;20.49;37.14;102753.94;5078968;27;45387;-53
2022/01/29 10:35:52;;;;;;;;;0.00;0.00;;;;;20.48;37.18;102746.94;5078586;27;45454;-60
2022/01/29 10:38:26;;;;;;;;;0.00;0.00;;;;;20.47;37.07;102750.47;5078812;27;46644;-54
2022/01/29 10:41:23;;;;;;;;;0.00;0.00;;;;;20.47;37.33;102747.84;5077362;28;45768;-55
2022/01/29 10:44:02;;;;;;;;;0.00;0.00;;;;;20.48;37.60;102749.56;5078975;28;45232;-57
2022/01/29 10:46:30;;;;;;;;;0.25;0.25;;;;;20.48;37.45;102745.19;5079062;27;45255;-57
2022/01/29 10:49:00;;;;;;;;;1.00;1.00;;;;;20.50;37.42;102739.88;5078563;27;45517;-59
2022/01/29 10:51:26;;;;;;;;;1.00;1.00;;;;;20.50;37.38;102737.25;5078694;27;45188;-50
2022/01/29 10:53:55;;;;;;;;;0.00;0.00;;;;;20.52;37.91;102743.34;5078889;27;45285;-56
2022/01/29 10:56:21;;;;;;;;;0.00;0.00;;;;;20.50;37.36;102740.75;5078685;27;45633;-60
2022/01/29 10:58:50;;;;;;;;;0.00;0.00;;;;;20.51;37.72;102738.97;5078504;28;45481;-55
2022/01/29 11:01:19;;;;;;;;;0.00;0.00;;;;;20.52;37.50;102736.28;5078531;27;45613;-56
2022/01/29 11:03:46;;;;;;;;;0.00;0.00;;;;;20.53;37.19;102750.34;5078800;27;45345;-54
2022/01/29 11:06:18;;;;;;;;;2.50;0.25;;;;;20.53;37.64;102745.06;5077545;27;45400;-50
2022/01/29 11:08:43;;;;;;;;;0.75;0.75;;;;;20.53;37.41;102742.44;5078493;27;47163;-56
2022/01/29 11:11:11;;;;;;;;;0.00;0.00;;;;;20.52;37.95;102745.97;5078607;27;45244;-53
2022/01/29 11:13:39;;;;;;;;;0.75;0.25;;;;;20.52;37.46;102743.34;5077446;28;45276;-54
2022/01/29 11:16:05;;;;;;;;;1.00;1.00;;;;;20.51;37.46;102744.25;5078610;27;45549;-52
2022/01/29 11:18:34;;;;;;;;;0.75;0.75;;;;;20.50;37.47;102747.78;5078172;27;46562;-51
2022/01/29 11:21:01;;;;;;;;;0.25;0.00;;;;;20.52;37.19;102740.69;5078112;27;45345;-57
2022/01/29 11:23:28;;;;;;;;;0.00;0.00;;;;;20.52;37.37;102751.25;5078288;27;45394;-57
2022/01/29 11:25:56;;;;;;;;;0.75;0.75;;;;;20.51;37.23;102749.50;5078293;27;45624;-55
2022/01/29 11:28:26;;;;;;;;;0.00;0.00;;;;;20.51;37.41;102750.34;5078223;27;45319;-51
2022/01/29 11:31:13;;;;;;;;;0.00;0.00;;;;;20.49;37.40;102740.78;5078006;27;45337;-55
2022/01/29 11:33:57;;;;;;;;;1.50;1.50;;;;;20.51;37.40;102749.50;5071343;27;45302;-47
2022/01/29 11:36:43;;;;;;;;;1.00;1.00;;;;;20.49;37.93;102744.28;5078242;28;45646;-51